sensor_id;sensor_type;location;lat;lon;timestamp;pressure;altitude;pressure_sealevel;temperature;humidity
58373;BME280;44177;43.356;27.672;2024-02-04T00:02:06;98339.34;;;2.73;98.17
58373;BME280;44177;43.356;27.672;2024-02-04T00:04:33;98338.66;;;2.67;98.57
58373;BME280;44177;43.356;27.672;2024-02-04T00:06:59;98327.88;;;2.67;98.49
58373;BME280;44177;43.356;27.672;2024-02-04T00:09:25;98341.56;;;2.71;98.92
58373;BME280;44177;43.356;27.672;2024-02-04T00:11:53;98327.06;;;2.67;99.04
58373;BME280;44177;43.356;27.672;2024-02-04T00:14:19;98329.19;;;2.70;98.99
58373;BME280;44177;43.356;27.672;2024-02-04T00:16:44;98337.25;;;2.70;99.31
58373;BME280;44177;43.356;27.672;2024-02-04T00:19:10;98339.66;;;2.72;99.15
58373;BME280;44177;43.356;27.672;2024-02-04T00:21:36;98330.41;;;2.59;99.19
58373;BME280;44177;43.356;27.672;2024-02-04T00:24:02;98335.13;;;2.67;99.47
58373;BME280;44177;43.356;27.672;2024-02-04T00:26:27;98321.78;;;2.57;99.65
58373;BME280;44177;43.356;27.672;2024-02-04T00:28:53;98335.09;;;2.72;99.45
58373;BME280;44177;43.356;27.672;2024-02-04T00:31:18;98296.91;;;2.46;99.49
58373;BME280;44177;43.356;27.672;2024-02-04T00:33:44;98314.97;;;2.64;99.86
58373;BME280;44177;43.356;27.672;2024-02-04T00:36:09;98328.13;;;2.85;99.91
58373;BME280;44177;43.356;27.672;2024-02-04T00:38:35;98333.75;;;2.89;99.79
58373;BME280;44177;43.356;27.672;2024-02-04T00:41:00;98283.75;;;2.63;100.00
58373;BME280;44177;43.356;27.672;2024-02-04T00:43:26;98302.06;;;2.80;99.99
58373;BME280;44177;43.356;27.672;2024-02-04T00:45:51;98313.78;;;2.90;99.81
58373;BME280;44177;43.356;27.672;2024-02-04T00:48:17;98278.22;;;2.74;99.65
58373;BME280;44177;43.356;27.672;2024-02-04T00:50:42;98265.63;;;2.69;99.50
58373;BME280;44177;43.356;27.672;2024-02-04T00:53:08;98317.34;;;3.04;99.37
58373;BME280;44177;43.356;27.672;2024-02-04T00:55:33;98293.78;;;2.96;98.98
58373;BME280;44177;43.356;27.672;2024-02-04T00:57:59;98317.19;;;3.14;98.50
58373;BME280;44177;43.356;27.672;2024-02-04T01:00:26;98322.94;;;3.27;98.11
58373;BME280;44177;43.356;27.672;2024-02-04T01:02:52;98309.53;;;3.22;98.00
58373;BME280;44177;43.356;27.672;2024-02-04T01:05:17;98326.53;;;3.36;97.29
58373;BME280;44177;43.356;27.672;2024-02-04T01:07:43;98332.44;;;3.38;96.75
58373;BME280;44177;43.356;27.672;2024-02-04T01:10:09;98289.94;;;3.16;96.48
58373;BME280;44177;43.356;27.672;2024-02-04T01:12:35;98307.16;;;3.34;96.40
58373;BME280;44177;43.356;27.672;2024-02-04T01:15:01;98317.50;;;3.46;96.30
58373;BME280;44177;43.356;27.672;2024-02-04T01:17:28;98304.59;;;3.43;96.26
58373;BME280;44177;43.356;27.672;2024-02-04T01:19:53;98316.66;;;3.45;96.17
58373;BME280;44177;43.356;27.672;2024-02-04T01:22:19;98308.47;;;3.37;96.51
58373;BME280;44177;43.356;27.672;2024-02-04T01:24:50;98322.75;;;3.37;96.61
58373;BME280;44177;43.356;27.672;2024-02-04T01:27:15;98305.16;;;3.26;97.10
58373;BME280;44177;43.356;27.672;2024-02-04T01:29:41;98313.44;;;3.29;97.33
58373;BME280;44177;43.356;27.672;2024-02-04T01:32:06;98316.72;;;3.26;97.70
58373;BME280;44177;43.356;27.672;2024-02-04T01:34:32;98291.94;;;3.10;97.85
58373;BME280;44177;43.356;27.672;2024-02-04T01:36:57;98313.59;;;3.19;98.30
58373;BME280;44177;43.356;27.672;2024-02-04T01:39:23;98311.69;;;3.20;98.67
58373;BME280;44177;43.356;27.672;2024-02-04T01:41:48;98289.81;;;3.07;98.79
58373;BME280;44177;43.356;27.672;2024-02-04T01:44:14;98290.84;;;3.11;98.61
58373;BME280;44177;43.356;27.672;2024-02-04T01:46:41;98294.75;;;3.19;98.40
58373;BME280;44177;43.356;27.672;2024-02-04T01:49:06;98255.91;;;2.87;98.84
58373;BME280;44177;43.356;27.672;2024-02-04T01:51:32;98277.94;;;3.08;98.90
58373;BME280;44177;43.356;27.672;2024-02-04T01:53:58;98289.72;;;3.12;99.16
58373;BME280;44177;43.356;27.672;2024-02-04T01:56:23;98284.41;;;3.07;99.53
58373;BME280;44177;43.356;27.672;2024-02-04T01:58:49;98277.41;;;3.06;99.57
58373;BME280;44177;43.356;27.672;2024-02-04T02:01:14;98277.34;;;3.11;99.41
58373;BME280;44177;43.356;27.672;2024-02-04T02:03:40;98273.75;;;3.16;99.46
58373;BME280;44177;43.356;27.672;2024-02-04T02:06:06;98259.47;;;3.15;98.86
58373;BME280;44177;43.356;27.672;2024-02-04T02:08:32;98272.38;;;3.19;98.81
58373;BME280;44177;43.356;27.672;2024-02-04T02:11:10;98276.75;;;3.14;99.12
58373;BME280;44177;43.356;27.672;2024-02-04T02:13:37;98277.97;;;3.22;99.18
58373;BME280;44177;43.356;27.672;2024-02-04T02:16:13;98267.59;;;3.29;99.26
58373;BME280;44177;43.356;27.672;2024-02-04T02:18:52;98263.63;;;3.27;99.12
58373;BME280;44177;43.356;27.672;2024-02-04T02:24:11;98258.22;;;3.27;99.45
58373;BME280;44177;43.356;27.672;2024-02-04T02:26:37;98253.53;;;3.32;99.12
58373;BME280;44177;43.356;27.672;2024-02-04T02:29:07;98255.25;;;3.42;98.82
58373;BME280;44177;43.356;27.672;2024-02-04T02:31:35;98191.78;;;3.03;98.10
58373;BME280;44177;43.356;27.672;2024-02-04T02:34:01;98234.25;;;3.39;98.27
58373;BME280;44177;43.356;27.672;2024-02-04T02:36:29;98238.66;;;3.35;97.96
58373;BME280;44177;43.356;27.672;2024-02-04T02:39:02;98241.63;;;3.34;98.26
58373;BME280;44177;43.356;27.672;2024-02-04T02:41:35;98242.16;;;3.36;98.58
58373;BME280;44177;43.356;27.672;2024-02-04T02:44:02;98239.16;;;3.37;98.81
58373;BME280;44177;43.356;27.672;2024-02-04T02:46:30;98249.03;;;3.42;98.79
58373;BME280;44177;43.356;27.672;2024-02-04T02:48:56;98248.47;;;3.59;98.68
58373;BME280;44177;43.356;27.672;2024-02-04T02:51:22;98217.69;;;3.46;98.39
58373;BME280;44177;43.356;27.672;2024-02-04T02:53:47;98226.66;;;3.55;98.79
58373;BME280;44177;43.356;27.672;2024-02-04T02:56:13;98244.84;;;3.63;99.28
58373;BME280;44177;43.356;27.672;2024-02-04T02:58:38;98241.69;;;3.61;99.50
58373;BME280;44177;43.356;27.672;2024-02-04T03:01:04;98234.47;;;3.57;99.61
58373;BME280;44177;43.356;27.672;2024-02-04T03:03:29;98240.88;;;3.61;99.59
58373;BME280;44177;43.356;27.672;2024-02-04T03:05:55;98214.59;;;3.39;100.00
58373;BME280;44177;43.356;27.672;2024-02-04T03:08:20;98237.47;;;3.55;100.00
58373;BME280;44177;43.356;27.672;2024-02-04T03:10:46;98236.88;;;3.58;100.00
58373;BME280;44177;43.356;27.672;2024-02-04T03:13:11;98227.50;;;3.70;100.00
58373;BME280;44177;43.356;27.672;2024-02-04T03:15:37;98236.25;;;3.75;99.89
58373;BME280;44177;43.356;27.672;2024-02-04T03:18:02;98230.88;;;3.75;100.00
58373;BME280;44177;43.356;27.672;2024-02-04T03:20:28;98208.50;;;3.61;100.00
58373;BME280;44177;43.356;27.672;2024-02-04T03:22:55;98235.56;;;3.84;100.00
58373;BME280;44177;43.356;27.672;2024-02-04T03:25:21;98246.28;;;3.89;100.00
58373;BME280;44177;43.356;27.672;2024-02-04T03:27:48;98246.75;;;3.91;100.00
58373;BME280;44177;43.356;27.672;2024-02-04T03:30:13;98246.28;;;3.89;99.95
58373;BME280;44177;43.356;27.672;2024-02-04T03:32:39;98251.38;;;3.90;100.00
58373;BME280;44177;43.356;27.672;2024-02-04T03:35:05;98255.06;;;3.94;100.00
58373;BME280;44177;43.356;27.672;2024-02-04T03:37:30;98242.88;;;3.97;100.00
58373;BME280;44177;43.356;27.672;2024-02-04T03:39:56;98255.94;;;4.04;99.84
58373;BME280;44177;43.356;27.672;2024-02-04T03:42:21;98254.56;;;4.06;99.69
58373;BME280;44177;43.356;27.672;2024-02-04T03:44:47;98256.13;;;4.07;99.72
58373;BME280;44177;43.356;27.672;2024-02-04T03:47:13;98245.16;;;4.04;99.76
58373;BME280;44177;43.356;27.672;2024-02-04T03:49:39;98232.47;;;3.90;99.68
58373;BME280;44177;43.356;27.672;2024-02-04T03:52:05;98249.63;;;4.08;99.80
58373;BME280;44177;43.356;27.672;2024-02-04T03:54:31;98238.13;;;4.03;100.00
58373;BME280;44177;43.356;27.672;2024-02-04T03:56:56;98240.06;;;4.02;100.00
58373;BME280;44177;43.356;27.672;2024-02-04T03:59:22;98239.56;;;4.00;100.00
58373;BME280;44177;43.356;27.672;2024-02-04T04:01:48;98240.25;;;4.06;100.00
58373;BME280;44177;43.356;27.672;2024-02-04T04:04:15;98222.06;;;3.98;100.00
58373;BME280;44177;43.356;27.672;2024-02-04T04:06:40;98237.84;;;4.04;100.00
58373;BME280;44177;43.356;27.672;2024-02-04T04:09:06;98224.16;;;4.01;100.00
58373;BME280;44177;43.356;27.672;2024-02-04T04:11:32;98186.13;;;3.74;100.00
58373;BME280;44177;43.356;27.672;2024-02-04T04:13:57;98223.47;;;3.95;100.00
58373;BME280;44177;43.356;27.672;2024-02-04T04:16:23;98237.84;;;4.04;100.00
58373;BME280;44177;43.356;27.672;2024-02-04T04:18:49;98226.75;;;4.06;100.00
58373;BME280;44177;43.356;27.672;2024-02-04T04:21:15;98231.06;;;4.07;100.00
58373;BME280;44177;43.356;27.672;2024-02-04T04:23:40;98204.25;;;3.97;100.00
58373;BME280;44177;43.356;27.672;2024-02-04T04:26:06;98221.41;;;4.15;100.00
58373;BME280;44177;43.356;27.672;2024-02-04T04:28:32;98186.91;;;3.89;100.00
58373;BME280;44177;43.356;27.672;2024-02-04T04:30:57;98218.13;;;4.18;100.00
58373;BME280;44177;43.356;27.672;2024-02-04T04:33:23;98227.44;;;4.25;100.00
58373;BME280;44177;43.356;27.672;2024-02-04T04:35:48;98201.22;;;4.26;100.00
58373;BME280;44177;43.356;27.672;2024-02-04T04:38:14;98198.50;;;4.26;100.00
58373;BME280;44177;43.356;27.672;2024-02-04T04:40:39;98229.97;;;4.45;100.00
58373;BME280;44177;43.356;27.672;2024-02-04T04:43:08;98236.97;;;4.46;100.00
58373;BME280;44177;43.356;27.672;2024-02-04T04:45:33;98259.25;;;4.51;100.00
58373;BME280;44177;43.356;27.672;2024-02-04T04:47:59;98249.13;;;4.57;100.00
58373;BME280;44177;43.356;27.672;2024-02-04T04:50:25;98214.19;;;4.38;100.00
58373;BME280;44177;43.356;27.672;2024-02-04T04:52:50;98247.50;;;4.70;100.00
58373;BME280;44177;43.356;27.672;2024-02-04T04:55:16;98251.84;;;4.80;100.00
58373;BME280;44177;43.356;27.672;2024-02-04T04:57:41;98209.91;;;4.59;100.00
58373;BME280;44177;43.356;27.672;2024-02-04T05:00:07;98253.03;;;4.87;100.00
58373;BME280;44177;43.356;27.672;2024-02-04T05:02:36;98233.94;;;4.84;100.00
58373;BME280;44177;43.356;27.672;2024-02-04T05:05:01;98237.78;;;4.92;100.00
58373;BME280;44177;43.356;27.672;2024-02-04T05:07:27;98221.00;;;4.81;99.64
58373;BME280;44177;43.356;27.672;2024-02-04T05:09:52;98248.16;;;4.98;99.68
58373;BME280;44177;43.356;27.672;2024-02-04T05:12:18;98234.78;;;4.93;99.52
58373;BME280;44177;43.356;27.672;2024-02-04T05:14:44;98208.25;;;4.72;99.36
58373;BME280;44177;43.356;27.672;2024-02-04T05:17:09;98240.56;;;5.00;99.25
58373;BME280;44177;43.356;27.672;2024-02-04T05:19:35;98224.81;;;4.80;99.23
58373;BME280;44177;43.356;27.672;2024-02-04T05:22:01;98232.81;;;4.85;99.30
58373;BME280;44177;43.356;27.672;2024-02-04T05:24:28;98237.41;;;4.84;99.67
58373;BME280;44177;43.356;27.672;2024-02-04T05:26:54;98249.22;;;4.88;99.87
58373;BME280;44177;43.356;27.672;2024-02-04T05:29:19;98249.09;;;4.94;99.83
58373;BME280;44177;43.356;27.672;2024-02-04T05:31:45;98232.19;;;4.88;99.57
58373;BME280;44177;43.356;27.672;2024-02-04T05:34:10;98209.59;;;4.84;99.29
58373;BME280;44177;43.356;27.672;2024-02-04T05:36:36;98220.78;;;4.91;99.06
58373;BME280;44177;43.356;27.672;2024-02-04T05:39:16;98229.59;;;5.05;98.97
58373;BME280;44177;43.356;27.672;2024-02-04T05:41:42;98232.91;;;5.02;99.18
58373;BME280;44177;43.356;27.672;2024-02-04T05:44:08;98233.91;;;5.06;99.00
58373;BME280;44177;43.356;27.672;2024-02-04T05:46:35;98223.88;;;5.07;98.76
58373;BME280;44177;43.356;27.672;2024-02-04T05:49:00;98212.38;;;5.01;98.74
58373;BME280;44177;43.356;27.672;2024-02-04T05:51:27;98224.41;;;5.18;98.14
58373;BME280;44177;43.356;27.672;2024-02-04T05:53:52;98233.53;;;5.22;98.01
58373;BME280;44177;43.356;27.672;2024-02-04T05:56:19;98215.56;;;5.26;97.83
58373;BME280;44177;43.356;27.672;2024-02-04T05:58:45;98157.59;;;4.87;97.69
58373;BME280;44177;43.356;27.672;2024-02-04T06:01:15;98217.66;;;5.29;97.73
58373;BME280;44177;43.356;27.672;2024-02-04T06:03:42;98201.38;;;5.20;97.89
58373;BME280;44177;43.356;27.672;2024-02-04T06:06:09;98212.38;;;5.24;98.06
58373;BME280;44177;43.356;27.672;2024-02-04T06:08:34;98224.16;;;5.28;98.11
58373;BME280;44177;43.356;27.672;2024-02-04T06:11:00;98225.75;;;5.29;98.12
58373;BME280;44177;43.356;27.672;2024-02-04T06:13:25;98227.19;;;5.27;98.15
58373;BME280;44177;43.356;27.672;2024-02-04T06:15:51;98235.16;;;5.32;97.82
58373;BME280;44177;43.356;27.672;2024-02-04T06:18:16;98243.13;;;5.37;97.42
58373;BME280;44177;43.356;27.672;2024-02-04T06:20:42;98241.06;;;5.34;97.23
58373;BME280;44177;43.356;27.672;2024-02-04T06:23:08;98255.09;;;5.36;97.46
58373;BME280;44177;43.356;27.672;2024-02-04T06:25:33;98243.44;;;5.35;97.49
58373;BME280;44177;43.356;27.672;2024-02-04T06:27:59;98253.34;;;5.40;97.25
58373;BME280;44177;43.356;27.672;2024-02-04T06:30:24;98254.19;;;5.49;96.86
58373;BME280;44177;43.356;27.672;2024-02-04T06:32:50;98265.00;;;5.49;96.94
58373;BME280;44177;43.356;27.672;2024-02-04T06:35:16;98261.88;;;5.56;96.68
58373;BME280;44177;43.356;27.672;2024-02-04T06:37:41;98259.63;;;5.58;96.48
58373;BME280;44177;43.356;27.672;2024-02-04T06:40:10;98260.78;;;5.66;95.49
58373;BME280;44177;43.356;27.672;2024-02-04T06:42:36;98256.66;;;5.68;95.71
58373;BME280;44177;43.356;27.672;2024-02-04T06:45:02;98250.41;;;5.59;95.96
58373;BME280;44177;43.356;27.672;2024-02-04T06:47:27;98270.03;;;5.74;95.80
58373;BME280;44177;43.356;27.672;2024-02-04T06:49:53;98269.28;;;5.82;95.56
58373;BME280;44177;43.356;27.672;2024-02-04T06:52:18;98253.69;;;5.88;95.31
58373;BME280;44177;43.356;27.672;2024-02-04T06:54:44;98248.63;;;5.95;95.50
58373;BME280;44177;43.356;27.672;2024-02-04T06:57:10;98229.25;;;6.02;94.75
58373;BME280;44177;43.356;27.672;2024-02-04T06:59:35;98215.88;;;6.14;93.04
58373;BME280;44177;43.356;27.672;2024-02-04T07:02:01;98235.19;;;6.47;91.75
58373;BME280;44177;43.356;27.672;2024-02-04T07:04:26;98243.78;;;6.50;91.33
58373;BME280;44177;43.356;27.672;2024-02-04T07:06:52;98235.66;;;6.76;90.35
58373;BME280;44177;43.356;27.672;2024-02-04T07:09:18;98192.94;;;6.55;89.76
58373;BME280;44177;43.356;27.672;2024-02-04T07:11:44;98230.69;;;7.04;89.52
58373;BME280;44177;43.356;27.672;2024-02-04T07:14:09;98227.00;;;7.18;88.54
58373;BME280;44177;43.356;27.672;2024-02-04T07:16:35;98224.06;;;7.40;87.42
58373;BME280;44177;43.356;27.672;2024-02-04T07:19:00;98235.56;;;7.76;85.51
58373;BME280;44177;43.356;27.672;2024-02-04T07:21:26;98237.22;;;8.49;82.08
58373;BME280;44177;43.356;27.672;2024-02-04T07:23:51;98236.06;;;8.59;80.36
58373;BME280;44177;43.356;27.672;2024-02-04T07:26:17;98207.38;;;8.41;79.24
58373;BME280;44177;43.356;27.672;2024-02-04T07:28:43;98219.00;;;8.71;78.54
58373;BME280;44177;43.356;27.672;2024-02-04T07:31:08;98246.28;;;8.96;77.98
58373;BME280;44177;43.356;27.672;2024-02-04T07:33:34;98208.25;;;8.53;77.96
58373;BME280;44177;43.356;27.672;2024-02-04T07:35:59;98236.34;;;8.36;78.92
58373;BME280;44177;43.356;27.672;2024-02-04T07:38:25;98242.44;;;8.33;80.06
58373;BME280;44177;43.356;27.672;2024-02-04T07:40:50;98186.50;;;7.81;81.42
58373;BME280;44177;43.356;27.672;2024-02-04T07:43:16;98214.50;;;8.03;81.44
58373;BME280;44177;43.356;27.672;2024-02-04T07:45:41;98243.06;;;8.09;81.93
58373;BME280;44177;43.356;27.672;2024-02-04T07:48:07;98215.06;;;7.87;81.25
58373;BME280;44177;43.356;27.672;2024-02-04T07:50:34;98256.63;;;9.03;77.78
58373;BME280;44177;43.356;27.672;2024-02-04T07:53:00;98246.13;;;8.59;77.74
58373;BME280;44177;43.356;27.672;2024-02-04T07:55:25;98268.69;;;9.14;77.01
58373;BME280;44177;43.356;27.672;2024-02-04T07:57:51;98267.00;;;8.88;76.91
58373;BME280;44177;43.356;27.672;2024-02-04T08:00:17;98263.94;;;9.69;75.18
58373;BME280;44177;43.356;27.672;2024-02-04T08:02:44;98254.34;;;9.38;73.36
58373;BME280;44177;43.356;27.672;2024-02-04T08:05:10;98267.38;;;8.99;75.76
58373;BME280;44177;43.356;27.672;2024-02-04T08:07:36;98264.03;;;8.60;77.47
58373;BME280;44177;43.356;27.672;2024-02-04T08:10:01;98268.28;;;8.40;77.64
58373;BME280;44177;43.356;27.672;2024-02-04T08:12:27;98258.88;;;8.37;79.21
58373;BME280;44177;43.356;27.672;2024-02-04T08:14:52;98257.91;;;8.42;79.45
58373;BME280;44177;43.356;27.672;2024-02-04T08:17:18;98251.22;;;10.10;73.28
58373;BME280;44177;43.356;27.672;2024-02-04T08:19:43;98254.63;;;9.70;71.33
58373;BME280;44177;43.356;27.672;2024-02-04T08:22:09;98256.09;;;9.68;72.68
58373;BME280;44177;43.356;27.672;2024-02-04T08:24:34;98253.88;;;9.24;73.50
58373;BME280;44177;43.356;27.672;2024-02-04T08:27:01;98233.75;;;8.82;75.17
58373;BME280;44177;43.356;27.672;2024-02-04T08:29:27;98250.75;;;8.79;76.37
58373;BME280;44177;43.356;27.672;2024-02-04T08:31:52;98251.28;;;8.94;76.20
58373;BME280;44177;43.356;27.672;2024-02-04T08:34:18;98240.97;;;9.33;73.87
58373;BME280;44177;43.356;27.672;2024-02-04T08:36:45;98213.47;;;8.80;74.48
58373;BME280;44177;43.356;27.672;2024-02-04T08:39:11;98219.44;;;8.73;76.41
58373;BME280;44177;43.356;27.672;2024-02-04T08:41:36;98239.94;;;8.92;76.39
58373;BME280;44177;43.356;27.672;2024-02-04T08:44:02;98238.66;;;8.89;75.56
58373;BME280;44177;43.356;27.672;2024-02-04T08:46:27;98239.31;;;8.86;75.16
58373;BME280;44177;43.356;27.672;2024-02-04T08:48:53;98243.84;;;9.03;74.61
58373;BME280;44177;43.356;27.672;2024-02-04T08:51:19;98241.75;;;9.33;73.11
58373;BME280;44177;43.356;27.672;2024-02-04T08:53:45;98229.44;;;9.73;72.08
58373;BME280;44177;43.356;27.672;2024-02-04T08:56:10;98240.38;;;11.36;66.57
58373;BME280;44177;43.356;27.672;2024-02-04T08:58:36;98227.13;;;12.54;59.86
58373;BME280;44177;43.356;27.672;2024-02-04T09:01:04;98231.03;;;13.12;56.36
58373;BME280;44177;43.356;27.672;2024-02-04T09:03:31;98229.25;;;13.43;54.74
58373;BME280;44177;43.356;27.672;2024-02-04T09:05:57;98235.50;;;12.81;54.54
58373;BME280;44177;43.356;27.672;2024-02-04T09:08:23;98235.75;;;13.35;53.39
58373;BME280;44177;43.356;27.672;2024-02-04T09:10:48;98223.88;;;13.73;51.82
58373;BME280;44177;43.356;27.672;2024-02-04T09:13:14;98211.84;;;14.05;51.49
58373;BME280;44177;43.356;27.672;2024-02-04T09:15:39;98207.81;;;14.26;50.39
58373;BME280;44177;43.356;27.672;2024-02-04T09:18:05;98207.66;;;15.47;48.00
58373;BME280;44177;43.356;27.672;2024-02-04T09:20:30;98191.34;;;16.25;46.34
58373;BME280;44177;43.356;27.672;2024-02-04T09:22:56;98196.50;;;17.65;43.09
58373;BME280;44177;43.356;27.672;2024-02-04T09:25:21;98190.56;;;17.45;42.12
58373;BME280;44177;43.356;27.672;2024-02-04T09:27:47;98189.75;;;18.24;41.11
58373;BME280;44177;43.356;27.672;2024-02-04T09:30:12;98188.97;;;18.17;40.62
58373;BME280;44177;43.356;27.672;2024-02-04T09:32:38;98188.84;;;16.76;42.47
58373;BME280;44177;43.356;27.672;2024-02-04T09:35:04;98188.59;;;17.35;42.69
58373;BME280;44177;43.356;27.672;2024-02-04T09:37:29;98194.53;;;17.55;42.09
58373;BME280;44177;43.356;27.672;2024-02-04T09:39:55;98186.97;;;16.17;44.18
58373;BME280;44177;43.356;27.672;2024-02-04T09:42:21;98173.09;;;15.05;46.77
58373;BME280;44177;43.356;27.672;2024-02-04T09:44:49;98123.69;;;15.09;46.71
58373;BME280;44177;43.356;27.672;2024-02-04T09:47:15;98165.41;;;14.84;48.21
58373;BME280;44177;43.356;27.672;2024-02-04T09:49:41;98157.06;;;15.56;45.57
58373;BME280;44177;43.356;27.672;2024-02-04T09:52:08;98152.06;;;16.28;45.26
58373;BME280;44177;43.356;27.672;2024-02-04T09:55:00;98155.38;;;15.89;44.90
58373;BME280;44177;43.356;27.672;2024-02-04T09:57:27;98155.53;;;15.62;45.54
58373;BME280;44177;43.356;27.672;2024-02-04T09:59:54;98164.22;;;14.47;50.23
58373;BME280;44177;43.356;27.672;2024-02-04T10:02:20;98160.56;;;14.70;48.84
58373;BME280;44177;43.356;27.672;2024-02-04T10:04:46;98177.59;;;14.52;48.96
58373;BME280;44177;43.356;27.672;2024-02-04T10:07:11;98175.72;;;13.72;51.34
58373;BME280;44177;43.356;27.672;2024-02-04T10:09:39;98168.75;;;13.09;53.71
58373;BME280;44177;43.356;27.672;2024-02-04T10:12:06;98151.41;;;12.58;54.42
58373;BME280;44177;43.356;27.672;2024-02-04T10:14:33;98162.22;;;12.15;56.52
58373;BME280;44177;43.356;27.672;2024-02-04T10:16:58;98166.34;;;11.90;58.41
58373;BME280;44177;43.356;27.672;2024-02-04T10:19:25;98161.34;;;11.44;60.44
58373;BME280;44177;43.356;27.672;2024-02-04T10:22:01;98171.22;;;11.00;62.73
58373;BME280;44177;43.356;27.672;2024-02-04T10:24:28;98161.84;;;10.57;64.04
58373;BME280;44177;43.356;27.672;2024-02-04T10:26:55;98154.84;;;10.31;65.66
58373;BME280;44177;43.356;27.672;2024-02-04T10:29:24;98178.72;;;10.34;67.54
58373;BME280;44177;43.356;27.672;2024-02-04T10:31:56;98142.00;;;9.91;67.46
58373;BME280;44177;43.356;27.672;2024-02-04T10:34:31;98124.19;;;9.81;67.38
58373;BME280;44177;43.356;27.672;2024-02-04T10:36:57;98170.59;;;10.22;67.56
58373;BME280;44177;43.356;27.672;2024-02-04T10:39:22;98155.00;;;10.22;67.79
58373;BME280;44177;43.356;27.672;2024-02-04T10:41:52;98157.19;;;10.17;67.20
58373;BME280;44177;43.356;27.672;2024-02-04T10:44:21;98170.34;;;10.15;66.41
58373;BME280;44177;43.356;27.672;2024-02-04T10:46:47;98161.06;;;10.03;68.75
58373;BME280;44177;43.356;27.672;2024-02-04T10:49:15;98152.91;;;10.03;67.73
58373;BME280;44177;43.356;27.672;2024-02-04T10:51:41;98139.28;;;9.91;67.95
58373;BME280;44177;43.356;27.672;2024-02-04T10:54:08;98158.44;;;10.07;68.40
58373;BME280;44177;43.356;27.672;2024-02-04T10:56:37;98154.03;;;10.02;66.99
58373;BME280;44177;43.356;27.672;2024-02-04T10:59:03;98139.38;;;9.94;68.34
58373;BME280;44177;43.356;27.672;2024-02-04T11:01:29;98134.94;;;10.02;69.64
58373;BME280;44177;43.356;27.672;2024-02-04T11:03:56;98134.03;;;10.10;68.09
58373;BME280;44177;43.356;27.672;2024-02-04T11:06:23;98109.53;;;9.98;67.70
58373;BME280;44177;43.356;27.672;2024-02-04T11:08:51;98128.19;;;10.24;67.59
58373;BME280;44177;43.356;27.672;2024-02-04T11:11:18;98119.88;;;10.33;67.69
58373;BME280;44177;43.356;27.672;2024-02-04T11:13:45;98124.31;;;10.38;67.21
58373;BME280;44177;43.356;27.672;2024-02-04T11:16:36;98133.19;;;10.63;66.66
58373;BME280;44177;43.356;27.672;2024-02-04T11:27:39;98153.88;;;11.09;64.62
58373;BME280;44177;43.356;27.672;2024-02-04T11:30:06;98091.75;;;10.57;64.99
58373;BME280;44177;43.356;27.672;2024-02-04T11:32:34;98140.88;;;10.73;65.90
58373;BME280;44177;43.356;27.672;2024-02-04T11:35:00;98146.44;;;10.49;66.57
58373;BME280;44177;43.356;27.672;2024-02-04T11:37:28;98141.72;;;10.62;66.67
58373;BME280;44177;43.356;27.672;2024-02-04T11:39:56;98141.25;;;10.88;66.28
58373;BME280;44177;43.356;27.672;2024-02-04T11:42:31;98138.19;;;11.05;64.88
58373;BME280;44177;43.356;27.672;2024-02-04T11:45:07;98142.88;;;11.21;64.20
58373;BME280;44177;43.356;27.672;2024-02-04T11:47:33;98136.25;;;11.22;63.50
58373;BME280;44177;43.356;27.672;2024-02-04T11:49:59;98153.69;;;11.33;64.68
58373;BME280;44177;43.356;27.672;2024-02-04T11:52:28;98161.16;;;11.68;62.59
58373;BME280;44177;43.356;27.672;2024-02-04T11:54:54;98158.66;;;11.95;62.25
58373;BME280;44177;43.356;27.672;2024-02-04T11:57:20;98156.28;;;12.10;62.04
58373;BME280;44177;43.356;27.672;2024-02-04T11:59:46;98154.75;;;12.32;60.96
58373;BME280;44177;43.356;27.672;2024-02-04T12:02:15;98148.06;;;12.29;59.62
58373;BME280;44177;43.356;27.672;2024-02-04T12:04:41;98143.19;;;12.39;59.74
58373;BME280;44177;43.356;27.672;2024-02-04T12:07:08;98137.06;;;12.26;59.53
58373;BME280;44177;43.356;27.672;2024-02-04T12:09:34;98136.34;;;12.48;59.01
58373;BME280;44177;43.356;27.672;2024-02-04T12:12:00;98124.16;;;12.66;58.41
58373;BME280;44177;43.356;27.672;2024-02-04T12:14:26;98120.56;;;12.61;56.57
58373;BME280;44177;43.356;27.672;2024-02-04T12:16:52;98117.38;;;12.79;57.10
58373;BME280;44177;43.356;27.672;2024-02-04T12:19:18;98121.84;;;12.68;57.25
58373;BME280;44177;43.356;27.672;2024-02-04T12:21:43;98099.25;;;12.71;56.43
58373;BME280;44177;43.356;27.672;2024-02-04T12:24:09;98123.47;;;13.15;54.93
58373;BME280;44177;43.356;27.672;2024-02-04T12:26:35;98115.56;;;13.33;54.68
58373;BME280;44177;43.356;27.672;2024-02-04T12:29:01;98111.69;;;13.38;54.99
58373;BME280;44177;43.356;27.672;2024-02-04T12:31:28;98079.75;;;13.22;54.71
58373;BME280;44177;43.356;27.672;2024-02-04T12:33:56;98104.44;;;13.46;55.33
58373;BME280;44177;43.356;27.672;2024-02-04T12:36:28;98095.34;;;13.95;53.92
58373;BME280;44177;43.356;27.672;2024-02-04T12:38:55;98086.44;;;14.05;52.36
58373;BME280;44177;43.356;27.672;2024-02-04T12:41:24;98092.09;;;13.86;52.21
58373;BME280;44177;43.356;27.672;2024-02-04T12:43:57;98088.06;;;14.10;51.84
58373;BME280;44177;43.356;27.672;2024-02-04T12:46:23;98085.84;;;14.19;52.24
58373;BME280;44177;43.356;27.672;2024-02-04T12:48:52;98075.19;;;14.48;51.06
58373;BME280;44177;43.356;27.672;2024-02-04T12:51:30;98071.31;;;14.87;49.67
58373;BME280;44177;43.356;27.672;2024-02-04T12:54:04;98070.50;;;15.35;48.80
58373;BME280;44177;43.356;27.672;2024-02-04T12:59:09;98067.16;;;15.63;46.27
58373;BME280;44177;43.356;27.672;2024-02-04T13:01:38;98077.22;;;15.97;46.76
58373;BME280;44177;43.356;27.672;2024-02-04T13:04:03;98083.44;;;15.83;46.13
58373;BME280;44177;43.356;27.672;2024-02-04T13:06:30;98082.59;;;15.83;45.92